createdAt,value
2018-08-06T00:00:06.876Z,16.70
2018-08-06T00:02:34.129Z,16.70
2018-08-06T00:05:01.405Z,16.70
2018-08-06T00:07:28.623Z,16.70
2018-08-06T00:09:55.886Z,16.70
2018-08-06T00:12:23.366Z,16.70
2018-08-06T00:14:50.591Z,16.70
2018-08-06T00:17:17.980Z,16.70
2018-08-06T00:19:45.219Z,16.70
2018-08-06T00:22:12.482Z,16.60
2018-08-06T00:24:39.683Z,16.60
2018-08-06T00:27:07.068Z,16.60
2018-08-06T00:29:34.378Z,16.60
2018-08-06T00:32:01.599Z,16.60
2018-08-06T00:34:28.929Z,16.60
2018-08-06T00:36:56.296Z,16.50
2018-08-06T00:39:23.560Z,16.50
2018-08-06T00:41:50.812Z,16.50
2018-08-06T00:44:18.155Z,16.50
2018-08-06T00:46:45.390Z,16.50
2018-08-06T00:49:12.659Z,16.50
2018-08-06T00:51:39.891Z,16.50
2018-08-06T00:54:07.153Z,16.50
2018-08-06T00:56:34.408Z,16.50
2018-08-06T00:59:01.663Z,16.50
2018-08-06T01:01:28.945Z,16.40
2018-08-06T01:03:56.193Z,16.40
2018-08-06T01:06:23.490Z,16.40
2018-08-06T01:08:50.778Z,16.40
2018-08-06T01:11:18.052Z,16.40
2018-08-06T01:13:45.388Z,16.30
2018-08-06T01:16:12.646Z,16.30
2018-08-06T01:18:39.893Z,16.20
2018-08-06T01:21:07.174Z,16.20
2018-08-06T01:23:34.479Z,16.10
2018-08-06T01:26:02.453Z,16.10
2018-08-06T01:28:29.747Z,16.10
2018-08-06T01:30:57.055Z,16.10
2018-08-06T01:33:24.286Z,16.10
2018-08-06T01:35:51.835Z,16.00
2018-08-06T01:38:19.141Z,16.00
2018-08-06T01:40:47.292Z,16.00
2018-08-06T01:43:14.515Z,16.00
2018-08-06T01:45:41.851Z,16.00
2018-08-06T01:48:09.064Z,15.90
2018-08-06T01:50:36.312Z,15.90
2018-08-06T01:53:03.570Z,15.90
2018-08-06T01:55:31.111Z,15.90
2018-08-06T01:57:58.351Z,15.90
2018-08-06T02:00:25.665Z,15.80
2018-08-06T02:02:52.968Z,15.90
2018-08-06T02:05:20.228Z,15.90
2018-08-06T02:07:47.583Z,15.80
2018-08-06T02:10:15.391Z,15.80
2018-08-06T02:12:43.526Z,15.70
2018-08-06T02:15:11.627Z,15.70
2018-08-06T02:17:39.291Z,15.70
2018-08-06T02:20:08.997Z,15.70
2018-08-06T02:22:36.868Z,15.70
2018-08-06T02:25:05.623Z,15.70
2018-08-06T02:27:32.964Z,15.60
2018-08-06T02:30:00.950Z,15.60
2018-08-06T02:32:28.307Z,15.60
2018-08-06T02:34:55.576Z,15.60
2018-08-06T02:37:22.961Z,15.50
2018-08-06T02:39:50.367Z,15.50
2018-08-06T02:42:17.628Z,15.50
2018-08-06T02:44:44.869Z,15.50
2018-08-06T02:47:12.297Z,15.50
2018-08-06T02:49:39.956Z,15.50
2018-08-06T02:52:07.315Z,15.50
2018-08-06T02:54:34.607Z,15.40
2018-08-06T02:57:02.264Z,15.40
2018-08-06T02:59:29.530Z,15.40
2018-08-06T03:01:56.977Z,15.40
2018-08-06T03:04:24.378Z,15.40
2018-08-06T03:06:51.635Z,15.40
2018-08-06T03:09:18.948Z,15.30
2018-08-06T03:11:46.186Z,15.30
2018-08-06T03:14:13.425Z,15.30
2018-08-06T03:16:40.704Z,15.20
2018-08-06T03:19:08.060Z,15.20
2018-08-06T03:21:35.357Z,15.20
2018-08-06T03:24:02.834Z,15.20
2018-08-06T03:26:30.239Z,15.20
2018-08-06T03:28:57.476Z,15.20
2018-08-06T03:31:24.872Z,15.30
2018-08-06T03:33:52.161Z,15.30
2018-08-06T03:36:19.499Z,15.30
2018-08-06T03:38:46.773Z,15.20
2018-08-06T03:41:14.104Z,15.30
2018-08-06T03:43:41.411Z,15.20
2018-08-06T03:46:08.652Z,15.20
2018-08-06T03:48:35.948Z,15.20
2018-08-06T03:51:03.241Z,15.30
2018-08-06T03:53:30.566Z,15.20
2018-08-06T03:55:57.816Z,15.20
2018-08-06T03:58:25.188Z,15.20
2018-08-06T04:00:52.629Z,15.30
2018-08-06T04:03:20.115Z,15.30
2018-08-06T04:05:47.408Z,15.30
2018-08-06T04:08:14.653Z,15.30
2018-08-06T04:10:41.917Z,15.30
2018-08-06T04:13:09.130Z,15.40
2018-08-06T04:15:36.347Z,15.30
2018-08-06T04:18:03.605Z,15.40
2018-08-06T04:20:30.831Z,15.40
2018-08-06T04:22:58.059Z,15.40
2018-08-06T04:25:25.361Z,15.40
2018-08-06T04:27:52.724Z,15.40
2018-08-06T04:30:20.027Z,15.40
2018-08-06T04:32:47.423Z,15.50
2018-08-06T04:35:15.478Z,15.50
2018-08-06T04:37:43.507Z,15.50
2018-08-06T04:40:11.654Z,15.50
2018-08-06T04:42:39.308Z,15.60
2018-08-06T04:47:34.887Z,15.80
2018-08-06T04:50:02.409Z,15.80
2018-08-06T04:52:29.768Z,15.80
2018-08-06T04:54:56.947Z,15.80
2018-08-06T04:57:24.148Z,15.90
2018-08-06T04:59:51.405Z,15.90
2018-08-06T05:02:18.743Z,16.00
2018-08-06T05:04:46.008Z,16.00
2018-08-06T05:07:13.340Z,16.00
2018-08-06T05:09:42.722Z,16.00
2018-08-06T05:12:09.984Z,16.10
2018-08-06T05:14:39.020Z,16.10
2018-08-06T05:17:07.069Z,16.10
2018-08-06T05:19:35.053Z,16.10
2018-08-06T05:22:02.614Z,16.10
2018-08-06T05:24:29.984Z,16.20
2018-08-06T05:26:57.672Z,16.20
2018-08-06T05:29:25.012Z,16.30
2018-08-06T05:31:52.328Z,16.30
2018-08-06T05:34:19.946Z,16.40
2018-08-06T05:36:47.331Z,16.40
2018-08-06T05:39:14.652Z,16.50
2018-08-06T05:41:41.903Z,16.60
2018-08-06T05:44:09.295Z,16.70
2018-08-06T05:46:37.986Z,16.70
2018-08-06T05:49:05.403Z,16.70
2018-08-06T05:51:32.775Z,16.70
2018-08-06T05:54:00.147Z,16.70
2018-08-06T05:56:27.360Z,16.80
2018-08-06T05:58:54.881Z,16.80
2018-08-06T06:01:22.263Z,16.80
2018-08-06T06:03:49.514Z,16.70
2018-08-06T06:06:16.787Z,16.80
2018-08-06T06:08:44.121Z,16.80
2018-08-06T06:11:11.369Z,16.90
2018-08-06T06:13:38.628Z,17.00
2018-08-06T06:16:06.759Z,17.10
2018-08-06T06:18:34.069Z,17.20
2018-08-06T06:21:01.405Z,17.20
2018-08-06T06:23:28.800Z,17.30
2018-08-06T06:25:56.118Z,17.40
2018-08-06T06:28:23.408Z,17.40
2018-08-06T06:30:50.689Z,17.50
2018-08-06T06:33:18.009Z,17.60
2018-08-06T06:35:45.326Z,17.70
2018-08-06T06:38:12.586Z,17.70
2018-08-06T06:40:39.832Z,17.80
2018-08-06T06:43:07.081Z,17.90
2018-08-06T06:45:34.346Z,17.90
2018-08-06T06:48:01.658Z,18.00
2018-08-06T06:50:28.934Z,18.10
2018-08-06T06:52:56.412Z,18.20
2018-08-06T06:55:23.665Z,18.20
2018-08-06T06:57:50.938Z,18.40
2018-08-06T07:00:18.256Z,18.50
2018-08-06T07:02:45.458Z,18.60
2018-08-06T07:05:12.206Z,18.70
2018-08-06T07:07:38.974Z,18.80
2018-08-06T07:10:06.579Z,18.90
2018-08-06T07:12:33.327Z,19.00
2018-08-06T07:15:00.391Z,19.10
2018-08-06T07:17:27.173Z,19.10
2018-08-06T07:19:53.922Z,19.20
2018-08-06T07:22:20.718Z,19.20
2018-08-06T07:24:47.506Z,19.30
2018-08-06T07:27:14.284Z,19.40
2018-08-06T07:29:41.523Z,19.40
2018-08-06T07:32:08.804Z,19.60
2018-08-06T07:34:36.159Z,19.70
2018-08-06T07:37:03.427Z,19.80
2018-08-06T07:39:30.727Z,19.70
2018-08-06T07:44:25.343Z,20.00
2018-08-06T07:46:52.651Z,20.10
2018-08-06T07:49:20.026Z,20.20
2018-08-06T07:51:47.293Z,20.40
2018-08-06T07:54:14.520Z,20.30
2018-08-06T07:56:41.747Z,20.30
2018-08-06T07:59:09.018Z,20.40
2018-08-06T08:01:36.267Z,20.60
2018-08-06T08:04:03.671Z,20.60
2018-08-06T08:06:31.070Z,20.60
2018-08-06T08:08:58.242Z,20.70
2018-08-06T08:11:25.512Z,20.80
2018-08-06T08:13:52.741Z,20.60
2018-08-06T08:16:19.993Z,20.80
2018-08-06T08:18:47.269Z,20.90
2018-08-06T08:21:14.523Z,21.00
2018-08-06T08:23:41.836Z,21.00
2018-08-06T08:26:09.169Z,21.10
2018-08-06T08:28:36.418Z,21.20
2018-08-06T08:31:03.688Z,21.40
2018-08-06T08:33:30.947Z,21.40
2018-08-06T08:35:57.708Z,21.30
2018-08-06T08:38:24.524Z,21.40
2018-08-06T08:40:51.293Z,21.50
2018-08-06T08:43:18.114Z,21.60
2018-08-06T08:45:44.876Z,21.60
2018-08-06T08:48:11.645Z,21.70
2018-08-06T08:50:38.462Z,21.50
2018-08-06T08:55:32.478Z,21.80
2018-08-06T09:00:26.991Z,22.10
2018-08-06T09:02:54.275Z,22.40
2018-08-06T09:07:49.528Z,22.50
2018-08-06T09:10:17.507Z,22.60
2018-08-06T09:12:45.059Z,22.50
2018-08-06T09:15:20.807Z,22.60
2018-08-06T09:17:48.084Z,22.80
2018-08-06T09:20:15.319Z,22.90
2018-08-06T09:22:43.229Z,22.80
2018-08-06T09:25:11.360Z,22.90
2018-08-06T09:27:39.725Z,22.90
2018-08-06T09:30:11.157Z,23.20
2018-08-06T09:32:38.427Z,23.20
2018-08-06T09:35:05.724Z,23.20
2018-08-06T09:37:33.043Z,23.30
2018-08-06T09:40:00.307Z,23.30
2018-08-06T09:42:27.588Z,23.30
2018-08-06T09:44:55.004Z,23.40
2018-08-06T09:47:22.403Z,23.40
2018-08-06T09:49:49.621Z,23.70
2018-08-06T09:52:17.162Z,23.60
2018-08-06T09:54:44.496Z,23.80
2018-08-06T09:57:11.850Z,23.70
2018-08-06T09:59:39.105Z,23.70
2018-08-06T10:02:06.470Z,23.50
2018-08-06T10:04:33.702Z,23.80
2018-08-06T10:07:01.045Z,24.00
2018-08-06T10:09:28.287Z,23.80
2018-08-06T10:11:55.592Z,23.90
2018-08-06T10:14:22.998Z,24.00
2018-08-06T10:16:50.256Z,24.00
2018-08-06T10:19:17.614Z,23.90
2018-08-06T10:21:44.847Z,24.20
2018-08-06T10:24:12.213Z,24.10
2018-08-06T10:26:39.461Z,24.40
2018-08-06T10:29:06.746Z,24.30
2018-08-06T10:31:33.948Z,24.30
2018-08-06T10:34:00.693Z,24.40
2018-08-06T10:36:27.688Z,24.70
2018-08-06T10:38:54.462Z,24.80
2018-08-06T10:41:21.690Z,25.10
2018-08-06T10:43:49.007Z,25.20
2018-08-06T10:46:16.346Z,25.20
2018-08-06T10:48:44.611Z,25.30
2018-08-06T10:51:12.095Z,25.30
2018-08-06T10:53:39.326Z,25.30
2018-08-06T10:56:06.648Z,25.60
2018-08-06T10:58:33.462Z,25.80
2018-08-06T11:01:00.813Z,26.00
2018-08-06T11:03:28.107Z,26.20
2018-08-06T11:05:55.420Z,26.50
2018-08-06T11:08:22.716Z,26.10
2018-08-06T11:10:49.919Z,26.20
2018-08-06T11:13:17.584Z,25.90
2018-08-06T11:15:44.786Z,25.50
2018-08-06T11:18:11.501Z,25.60
2018-08-06T11:20:38.819Z,26.40
2018-08-06T11:23:06.096Z,27.10
2018-08-06T11:25:32.822Z,27.90
2018-08-06T11:28:00.109Z,28.90
2018-08-06T11:30:27.424Z,29.70
2018-08-06T11:32:54.906Z,30.20
2018-08-06T11:35:22.155Z,31.20
2018-08-06T11:37:49.505Z,31.70
2018-08-06T11:40:17.409Z,31.40
2018-08-06T11:42:45.382Z,31.90
2018-08-06T11:45:14.854Z,32.90
2018-08-06T11:47:42.199Z,32.80
2018-08-06T11:50:10.069Z,33.90
2018-08-06T11:52:37.538Z,33.60
2018-08-06T11:55:05.391Z,33.90
2018-08-06T11:57:32.691Z,34.80
2018-08-06T11:59:59.481Z,34.20
2018-08-06T12:02:26.424Z,34.70
2018-08-06T12:04:53.151Z,35.40
2018-08-06T12:07:20.481Z,34.30
2018-08-06T12:09:47.734Z,34.00
2018-08-06T12:12:14.995Z,35.00
2018-08-06T12:14:42.295Z,36.00
2018-08-06T12:17:09.560Z,36.50
2018-08-06T12:19:36.915Z,37.70
2018-08-06T12:22:04.167Z,38.40
2018-08-06T12:24:31.396Z,36.20
2018-08-06T12:26:58.704Z,35.70
2018-08-06T12:29:26.412Z,37.80
2018-08-06T12:31:53.411Z,37.80
2018-08-06T12:34:20.197Z,38.70
2018-08-06T12:36:47.039Z,36.90
2018-08-06T12:39:14.677Z,36.80
2018-08-06T12:41:41.443Z,38.70
2018-08-06T12:44:11.004Z,39.40
2018-08-06T12:46:38.589Z,41.10
2018-08-06T12:49:05.778Z,41.50
2018-08-06T12:51:32.508Z,41.50
2018-08-06T12:53:59.249Z,37.80
2018-08-06T12:56:26.358Z,35.70
2018-08-06T12:58:53.087Z,36.70
2018-08-06T13:01:20.387Z,37.30
2018-08-06T13:03:47.946Z,39.40
2018-08-06T13:06:14.911Z,38.80
2018-08-06T13:08:42.199Z,39.70
2018-08-06T13:11:09.397Z,40.10
2018-08-06T13:13:36.619Z,41.00
2018-08-06T13:16:04.313Z,40.20
2018-08-06T13:18:31.683Z,41.90
2018-08-06T13:20:58.967Z,40.50
2018-08-06T13:23:26.272Z,42.00
2018-08-06T13:25:53.576Z,41.70
2018-08-06T13:28:20.911Z,42.50
2018-08-06T13:30:48.196Z,40.40
2018-08-06T13:33:15.391Z,40.30
2018-08-06T13:35:42.705Z,39.00
2018-08-06T13:38:09.975Z,39.80
2018-08-06T13:40:37.279Z,39.70
2018-08-06T13:43:04.864Z,39.70
2018-08-06T13:45:32.100Z,42.00
2018-08-06T13:47:59.402Z,44.10
2018-08-06T13:50:26.642Z,43.90
2018-08-06T13:52:53.953Z,45.30
2018-08-06T13:55:21.172Z,45.60
2018-08-06T13:57:48.463Z,46.00
2018-08-06T14:00:17.445Z,44.00
2018-08-06T14:02:44.781Z,42.70
2018-08-06T14:05:13.400Z,45.40
2018-08-06T14:07:41.044Z,46.20
2018-08-06T14:10:09.213Z,41.30
2018-08-06T14:12:37.187Z,43.00
2018-08-06T14:15:05.311Z,45.10
2018-08-06T14:17:32.560Z,44.10
2018-08-06T14:19:59.805Z,46.40
2018-08-06T14:22:27.312Z,43.50
2018-08-06T14:24:54.563Z,41.00
2018-08-06T14:27:21.832Z,43.40
2018-08-06T14:29:49.193Z,44.80
2018-08-06T14:32:16.587Z,43.60
2018-08-06T14:34:44.081Z,43.20
2018-08-06T14:37:11.399Z,41.50
2018-08-06T14:39:38.711Z,42.50
2018-08-06T14:42:06.484Z,45.10
2018-08-06T14:44:33.893Z,46.70
2018-08-06T14:47:01.234Z,47.00
2018-08-06T14:49:28.567Z,46.50
2018-08-06T14:51:55.908Z,46.50
2018-08-06T14:54:23.232Z,47.80
2018-08-06T14:56:50.250Z,48.10
2018-08-06T15:01:44.821Z,48.30
2018-08-06T15:04:12.081Z,48.30
2018-08-06T15:06:39.323Z,47.70
2018-08-06T15:11:35.084Z,44.30
2018-08-06T15:14:02.727Z,43.50
2018-08-06T15:16:30.141Z,44.30
2018-08-06T15:18:57.515Z,44.00
2018-08-06T15:21:24.875Z,41.70
2018-08-06T15:23:52.255Z,42.10
2018-08-06T15:26:19.575Z,41.60
2018-08-06T15:28:46.841Z,42.90
2018-08-06T15:31:14.658Z,43.00
2018-08-06T15:33:41.943Z,41.90
2018-08-06T15:36:09.290Z,42.30
2018-08-06T15:38:36.592Z,44.90
2018-08-06T15:41:04.317Z,46.30
2018-08-06T15:43:31.755Z,46.80
2018-08-06T15:45:59.137Z,47.10
2018-08-06T15:48:26.378Z,44.00
2018-08-06T15:50:53.259Z,41.10
2018-08-06T15:53:20.081Z,39.70
2018-08-06T15:55:46.803Z,40.00
2018-08-06T15:58:13.678Z,38.10
2018-08-06T16:00:40.845Z,37.50
2018-08-06T16:03:07.567Z,39.00
2018-08-06T16:05:34.328Z,38.90
2018-08-06T16:08:01.759Z,38.70
2018-08-06T16:10:28.532Z,38.70
2018-08-06T16:12:56.040Z,37.80
2018-08-06T16:15:23.463Z,38.20
2018-08-06T16:17:51.807Z,40.20
2018-08-06T16:20:19.088Z,42.00
2018-08-06T16:22:46.475Z,39.70
2018-08-06T16:25:14.093Z,40.80
2018-08-06T16:27:41.399Z,40.00
2018-08-06T16:30:17.439Z,40.20
2018-08-06T16:32:45.962Z,40.70
2018-08-06T16:35:13.688Z,41.40
2018-08-06T16:37:40.933Z,38.80
2018-08-06T16:40:09.108Z,39.50
2018-08-06T16:42:36.381Z,39.80
2018-08-06T16:45:04.452Z,40.00
2018-08-06T16:47:31.829Z,40.60
2018-08-06T16:49:59.177Z,38.70
2018-08-06T16:52:26.519Z,37.90
2018-08-06T16:54:54.150Z,36.20
2018-08-06T16:57:21.416Z,34.70
2018-08-06T16:59:49.331Z,34.50
2018-08-06T17:02:16.620Z,35.00
2018-08-06T17:04:43.411Z,36.90
2018-08-06T17:07:10.220Z,38.50
2018-08-06T17:09:37.050Z,38.10
2018-08-06T17:12:03.947Z,36.80
2018-08-06T17:14:30.718Z,35.50
2018-08-06T17:16:57.426Z,34.80
2018-08-06T17:19:24.254Z,34.30
2018-08-06T17:21:51.610Z,33.60
2018-08-06T17:24:18.925Z,33.20
2018-08-06T17:26:46.217Z,32.90
2018-08-06T17:29:13.475Z,32.60
2018-08-06T17:31:40.694Z,32.10
2018-08-06T17:34:07.459Z,32.00
2018-08-06T17:36:34.811Z,32.50
2018-08-06T17:39:02.171Z,32.20
2018-08-06T17:41:28.905Z,31.90
2018-08-06T17:43:55.602Z,31.80
2018-08-06T17:46:22.854Z,31.70
2018-08-06T17:48:49.579Z,31.40
2018-08-06T17:51:16.372Z,30.70
2018-08-06T17:53:43.079Z,30.80
2018-08-06T17:56:09.926Z,30.60
2018-08-06T17:58:37.154Z,30.10
2018-08-06T18:01:04.527Z,30.00
2018-08-06T18:03:31.883Z,29.80
2018-08-06T18:05:58.719Z,29.50
2018-08-06T18:08:25.602Z,29.30
2018-08-06T18:10:52.408Z,29.20
2018-08-06T18:13:19.203Z,29.20
2018-08-06T18:15:45.998Z,29.20
2018-08-06T18:18:12.786Z,29.00
2018-08-06T18:20:39.510Z,28.90
2018-08-06T18:23:06.630Z,28.90
2018-08-06T18:25:33.368Z,28.70
2018-08-06T18:28:00.079Z,28.60
2018-08-06T18:30:26.877Z,28.60
2018-08-06T18:35:20.363Z,28.30
2018-08-06T18:37:47.498Z,28.20
2018-08-06T18:40:15.131Z,28.10
2018-08-06T18:42:41.868Z,27.90
2018-08-06T18:45:12.730Z,27.70
2018-08-06T18:47:39.984Z,27.50
2018-08-06T18:50:07.231Z,27.40
2018-08-06T18:52:34.019Z,27.30
2018-08-06T18:55:00.815Z,27.10
2018-08-06T18:57:27.585Z,26.90
2018-08-06T18:59:54.366Z,26.80
2018-08-06T19:02:21.225Z,26.60
2018-08-06T19:04:48.028Z,26.50
2018-08-06T19:07:14.768Z,26.40
2018-08-06T19:09:41.554Z,26.20
2018-08-06T19:12:14.262Z,26.10
2018-08-06T19:14:41.650Z,26.00
2018-08-06T19:17:10.074Z,25.90
2018-08-06T19:19:37.348Z,25.80
2018-08-06T19:22:04.676Z,25.80
2018-08-06T19:24:37.897Z,25.80
2018-08-06T19:27:05.248Z,25.70
2018-08-06T19:29:32.622Z,25.60
2018-08-06T19:32:00.445Z,25.60
2018-08-06T19:34:27.928Z,25.50
2018-08-06T19:37:04.194Z,25.50
2018-08-06T19:39:31.499Z,25.50
2018-08-06T19:41:58.823Z,25.50
2018-08-06T19:44:26.129Z,25.50
2018-08-06T19:46:53.659Z,25.40
2018-08-06T19:49:26.743Z,25.30
2018-08-06T19:51:54.078Z,25.30
2018-08-06T19:54:21.436Z,25.20
2018-08-06T19:59:16.303Z,25.10
2018-08-06T20:01:48.969Z,25.00
2018-08-06T20:04:16.555Z,24.90
2018-08-06T20:06:43.857Z,24.90
2018-08-06T20:09:13.119Z,24.80
2018-08-06T20:11:40.648Z,24.80
2018-08-06T20:14:09.463Z,24.70
2018-08-06T20:16:36.887Z,24.50
2018-08-06T20:19:06.497Z,24.40
2018-08-06T20:21:33.886Z,24.30
2018-08-06T20:24:01.345Z,24.20
2018-08-06T20:26:28.597Z,24.00
2018-08-06T20:28:55.939Z,24.00
2018-08-06T20:31:23.415Z,23.90
2018-08-06T20:33:50.882Z,23.80
2018-08-06T20:36:18.252Z,23.70
2018-08-06T20:38:45.541Z,23.60
2018-08-06T20:43:47.402Z,23.50
2018-08-06T20:46:14.968Z,23.40
2018-08-06T20:48:42.278Z,23.30
2018-08-06T20:51:09.572Z,23.20
2018-08-06T20:53:36.849Z,23.20
2018-08-06T20:56:04.193Z,23.10
2018-08-06T20:58:31.551Z,23.00
2018-08-06T21:00:58.916Z,22.90
2018-08-06T21:03:26.179Z,22.80
2018-08-06T21:05:54.203Z,22.80
2018-08-06T21:08:21.773Z,22.70
2018-08-06T21:10:50.151Z,22.70
2018-08-06T21:13:19.338Z,22.60
2018-08-06T21:15:46.094Z,22.60
2018-08-06T21:18:13.339Z,22.50
2018-08-06T21:20:40.588Z,22.50
2018-08-06T21:23:07.874Z,22.40
2018-08-06T21:25:35.541Z,22.40
2018-08-06T21:28:02.970Z,22.40
2018-08-06T21:30:30.288Z,22.40
2018-08-06T21:32:57.491Z,22.40
2018-08-06T21:35:26.083Z,22.40
2018-08-06T21:37:53.990Z,22.40
2018-08-06T21:40:22.065Z,22.30
2018-08-06T21:42:49.918Z,22.30
2018-08-06T21:47:44.755Z,22.30
2018-08-06T21:50:12.613Z,22.30
2018-08-06T21:52:39.911Z,22.20
2018-08-06T22:41:15.407Z,22.00
2018-08-06T22:43:42.860Z,21.60
2018-08-06T22:46:10.085Z,21.60
2018-08-06T22:48:37.319Z,21.60
2018-08-06T22:51:04.583Z,21.60
2018-08-06T22:53:31.900Z,21.60
2018-08-06T22:56:03.016Z,21.60
2018-08-06T22:58:30.301Z,21.50
2018-08-06T23:00:57.673Z,21.50
2018-08-06T23:03:24.979Z,21.50
2018-08-06T23:05:52.381Z,21.50
2018-08-06T23:08:19.867Z,21.40
2018-08-06T23:10:47.148Z,21.40
2018-08-06T23:13:14.681Z,21.40
2018-08-06T23:15:41.980Z,21.40
2018-08-06T23:18:09.236Z,21.30
2018-08-06T23:20:36.543Z,21.30
2018-08-06T23:23:03.839Z,21.30
2018-08-06T23:25:31.069Z,21.20
2018-08-06T23:27:58.353Z,21.20
2018-08-06T23:30:25.603Z,21.20
2018-08-06T23:32:52.892Z,21.10
2018-08-06T23:35:20.243Z,21.10
2018-08-06T23:37:47.460Z,21.00
2018-08-06T23:40:15.009Z,21.00
2018-08-06T23:42:42.690Z,21.00
2018-08-06T23:45:11.768Z,20.90
2018-08-06T23:47:39.477Z,20.90
2018-08-06T23:52:35.447Z,20.80
2018-08-06T23:57:30.036Z,20.80
2018-08-06T23:59:57.278Z,20.80
